x

Cape San Martin - 55nm West Nw Of Morro Bay, Ca (46028) Wave Buoy

8:50am - Wed 17th Sep 2014 All times are PDT. -7 hours from GMT.

  • Sig Wave height 3.9ft
  • Swell Direction
  • Peak Period 19s
  • Average Period 7s
  • Wind
    13mph, 16mph gusts
  • Sea Temp 62°f
  • Air Temp 62°f
  • Sea Pressure 1009.8mb
  • Cape San Martin - 55nm West Nw Of Morro Bay, Ca
  • Cape San Martin - 55nm West Nw Of Morro Bay, Ca

More Historic Weather Station data

Upgrade to MSW Pro to gain access to the past 30 days of data for over 8000 Wavebouys and Weather Stations around the globe.

Join Pro

Comparision Forecast

View Surf forecast
   
Wed 09/17 8:50am 4ft 19s 7s 13 16 mph 1009.8mb 62f 62f
7:50am 4.5ft 17s 8s 11 13 mph 1009.3mb 63f 62f
6:50am  -   -   -  13 16 mph 1008.9mb 63f 62f
5:50am 4.5ft 17s 7s 16 18 mph 1008.8mb 63f 62f
4:50am 4ft 17s 7s 16 18 mph 1008.7mb 63f 62f
3:50am  -   -   -  16 18 mph 1008.6mb 63f 62f
2:50am 4ft 19s 8s 11 13 mph 1009mb 63f 63f
1:50am 3.5ft 19s 7s 11 13 mph 1008.9mb 63f 63f
12:50am 4.5ft 19s 8s 11 16 mph 1009.2mb 63f 63f
Tue 09/16 11:50pm 4ft 19s 7s 13 16 mph 1009.3mb 63f 63f
10:50pm  -   -   -  13 16 mph 1009.6mb 63f 63f
9:50pm  -   -   -  16 18 mph 1009.8mb 63f 63f
8:50pm  -   -   -  16 18 mph 1009.8mb 63f 63f
7:50pm 4.5ft 19s 7s 16 20 mph 1009.6mb 64f 63f
6:50pm 4.5ft 19s 6s 16 20 mph 1009.6mb 64f 63f
5:50pm  -   -   -  16 18 mph 1009.6mb 64f 64f
4:50pm 4.5ft 19s 6s 18 20 mph 1009.6mb 64f 63f
3:50pm 4.5ft 19s 6s 16 18 mph 1010.2mb 64f 64f
1:50pm 4.5ft 19s 7s 13 16 mph 1010.8mb 64f 63f
12:50pm 4.5ft 19s 6s 16 18 mph 1010.6mb 63f 63f
11:50am 4.5ft 19s 5s 16 20 mph 1011.4mb 63f 63f
10:50am 4ft 19s 5s 18 20 mph 1012mb 63f 62f
9:50am  -   -   -  18 20 mph 1011.9mb 63f 62f
8:50am 5ft 19s 7s 18 20 mph 1011.7mb 62f 62f
7:50am 4.5ft 19s 6s 18 20 mph 1011.7mb 62f 62f
6:50am  -   -   -  18 20 mph 1011.7mb 62f 62f
5:50am  -   -   -  16 20 mph 1011.4mb 62f 62f
4:50am  -   -   -  16 18 mph 1011.2mb 62f 62f
3:50am 4.5ft 21s 7s 16 20 mph 1011.4mb 62f 62f
2:50am  -   -   -  13 16 mph 1011.8mb 62f 63f
1:50am 4ft 19s 7s 13 16 mph 1012.4mb 62f 63f
12:50am  -   -   -  13 16 mph 1012.6mb 62f 63f
Mon 09/15 10:50pm 3.5ft 21s 6s 13 16 mph 1012.7mb 62f 63f
9:50pm  -   -   -  13 16 mph 1012.5mb 62f 64f
8:50pm 3.5ft 19s 6s 16 18 mph 1012.1mb 62f 64f
7:50pm 3.5ft 21s 6s 16 18 mph 1011.4mb 63f 64f
6:50pm 4ft 21s 7s 13 16 mph 1011.5mb 63f 64f
5:50pm 3.5ft 21s 5s 13 16 mph 1011.6mb 63f 64f
4:50pm 3.5ft 21s 6s 16 18 mph 1011.7mb 63f 64f
3:50pm 3.5ft 21s 5s 13 16 mph 1011.7mb 63f 63f
2:50pm 4ft 21s 6s 16 18 mph 1012mb 63f 63f
1:50pm 3.5ft 21s 5s 13 18 mph 1012.2mb 63f 63f
12:50pm 3.5ft 21s 5s 16 18 mph 1012.3mb 63f 63f
11:50am 3.5ft 21s 5s 16 18 mph 1012.2mb 63f 63f
10:50am 3.5ft 5s 5s 16 18 mph 1012.4mb 63f 63f
9:50am 3.5ft 5s 5s 16 20 mph 1012.2mb 62f 63f
8:50am  -   -   -  16 20 mph 1011.9mb 62f 63f
7:50am 3.5ft 5s 5s 16 18 mph 1011.4mb 62f 62f
6:50am 3.5ft 4s 5s 18 22 mph 1010.9mb 62f 62f
5:50am 3.5ft 13s 5s 18 20 mph 1010.4mb 62f 62f
4:50am 3.5ft 14s 5s 16 20 mph 1010.3mb 62f 62f
3:50am 3.5ft 13s 5s 16 20 mph 1010.1mb 62f 62f
2:50am  -   -   -  16
mph
1010.2mb 62f 62f
1:50am  -   -   -  16 18 mph 1010.3mb 63f 62f
Sun 09/14 11:50pm  -   -   -  13 16 mph 1010.1mb 63f 63f
10:50pm 3.5ft 5s 5s 11 13 mph 1010.1mb 63f 63f
9:50pm 3.5ft 5s 5s 13 16 mph 1009.9mb 63f 63f
8:50pm 4ft 5s 5s 13 18 mph 1009.6mb 62f 63f
7:50pm 4.5ft 4s 5s 18 20 mph 1008.8mb 62f 63f
6:50pm 4ft 5s 5s 18 22 mph 1008.7mb 62f 63f
5:50pm  -   -   -  18 22 mph 1008.7mb 62f 62f
4:50pm  -   -   -  18 22 mph 1008.7mb 62f 62f
3:50pm 4ft 5s 5s 18 20 mph 1009.1mb 62f 62f
2:50pm 3.5ft 5s 5s 18 20 mph 1009.6mb 62f 62f
1:50pm 3.5ft 5s 5s 18 20 mph 1010mb 61f 62f
12:50pm  -   -   -  18 22 mph 1010.5mb 61f 62f
11:50am 3.5ft 5s 5s 16 20 mph 1010.7mb 60f 61f
10:50am  -   -   -  16 18 mph 1010.8mb 60f 61f
9:50am 3.5ft 14s 5s 16 18 mph 1010.7mb 60f 61f
8:50am  -   -   -  18 20 mph 1010.3mb 60f 61f
7:50am  -   -   -  16 18 mph 1010.2mb 60f 61f
6:50am  -   -   -  13 18 mph 1009.6mb 60f 61f
5:50am  -   -   -  16 18 mph 1009.1mb 61f 61f
4:50am 3.5ft 11s 5s 18 20 mph 1008.5mb 61f 61f
3:50am 3ft 12s 5s 18 22 mph 1008.2mb 61f 61f
2:50am  -   -   -  13 18 mph 1009.1mb 61f 61f
1:50am  -   -   -  13 16 mph 1009.5mb 62f 61f
12:50am 3ft 11s 6s 11 13 mph - 62f 61f
Sat 09/13 11:50pm 3ft 13s 6s 7 9 mph 1010.2mb 62f 62f
10:50pm  -   -   -  9 11 mph 1010mb 63f 62f
9:50pm 3.5ft 11s 6s 7 9 mph 1010.1mb 63f 62f
8:50pm  -   -   -  13 16 mph 1009.6mb 63f 62f
7:50pm 3.5ft 11s 6s 13 16 mph 1009.4mb 63f 62f
6:50pm  -   -   -  13
mph
- - -
5:50pm  -   -   -  13 16 mph 1009.7mb 63f 62f
4:50pm  -   -   -  13 16 mph 1010mb 63f 61f